Terminal Aerodrome Forecast
Issued by NWS

Home | Current Version | Previous Version | Text Only | Print | Product List | Glossary On
Versions: 1 2 3 4 5 6 7 8 9 10 11 12 13 14
000
FTUS44 KMAF 281100
TAFHOB
TAF
KHOB 281120Z 2812/2912 09009KT P6SM SCT110
     FM282000 09012G20KT P6SM SCT080
     FM290300 10008KT P6SM BKN100=

USA.gov is the U.S. government's official web portal to all federal, state and local government web resources and services.